createdAt,value
2024-01-20T00:01:37.693Z,98555.00
2024-01-20T00:06:39.614Z,98555.00
2024-01-20T00:11:41.695Z,98549.22
2024-01-20T00:16:43.861Z,98548.13
2024-01-20T00:21:46.394Z,98547.06
2024-01-20T00:26:51.069Z,98552.78
2024-01-20T00:31:53.242Z,98565.53
2024-01-20T00:36:55.158Z,98570.53
2024-01-20T00:41:57.052Z,98572.63
2024-01-20T00:46:58.955Z,98570.09
2024-01-20T00:52:00.867Z,98571.00
2024-01-20T00:57:02.770Z,98565.75
2024-01-20T01:02:04.867Z,98574.31
2024-01-20T01:07:06.819Z,98577.91
2024-01-20T01:12:08.792Z,98575.16
2024-01-20T01:17:10.830Z,98575.81
2024-01-20T01:22:12.725Z,98584.22
2024-01-20T01:27:14.640Z,98595.25
2024-01-20T01:32:16.757Z,98592.00
2024-01-20T01:37:18.670Z,98593.00
2024-01-20T01:42:20.610Z,98593.13
2024-01-20T01:47:23.024Z,98595.81
2024-01-20T01:52:26.728Z,98601.78
2024-01-20T01:57:31.142Z,98602.00
2024-01-20T02:02:33.013Z,98606.09
2024-01-20T02:07:35.849Z,98609.44
2024-01-20T02:12:39.161Z,98608.56
2024-01-20T02:17:59.309Z,98605.03
2024-01-20T02:23:01.457Z,98602.50
2024-01-20T02:28:03.597Z,98601.25
2024-01-20T02:33:05.523Z,98610.59
2024-01-20T02:38:07.639Z,98609.06
2024-01-20T02:43:09.465Z,98614.19
2024-01-20T02:48:11.888Z,98617.63
2024-01-20T02:53:13.928Z,98614.34
2024-01-20T02:58:15.761Z,98619.31
2024-01-20T03:03:17.614Z,98618.38
2024-01-20T03:08:19.615Z,98622.84
2024-01-20T03:13:21.526Z,98629.81
2024-01-20T03:18:23.632Z,98628.47
2024-01-20T03:23:25.966Z,98623.91
2024-01-20T03:33:30.536Z,98624.75
2024-01-20T03:38:32.439Z,98626.41
2024-01-20T03:43:34.335Z,98626.56
2024-01-20T03:48:36.536Z,98627.25
2024-01-20T03:53:38.467Z,98628.16
2024-01-20T03:58:40.317Z,98630.81
2024-01-20T04:03:42.251Z,98636.75
2024-01-20T04:08:44.178Z,98644.19
2024-01-20T04:13:46.028Z,98649.31
2024-01-20T04:18:48.012Z,98666.97
2024-01-20T04:23:53.152Z,98670.47
2024-01-20T04:28:55.004Z,98665.47
2024-01-20T04:33:57.313Z,98672.25
2024-01-20T04:38:59.252Z,98686.41
2024-01-20T04:44:01.105Z,98696.81
2024-01-20T04:49:03.121Z,98689.59
2024-01-20T04:54:05.295Z,98697.03
2024-01-20T04:59:07.216Z,98702.22
2024-01-20T05:04:09.097Z,98704.97
2024-01-20T05:09:11.521Z,98700.56
2024-01-20T05:14:13.397Z,98706.56
2024-01-20T05:19:15.558Z,98707.72
2024-01-20T05:24:17.597Z,98722.03
2024-01-20T05:29:19.496Z,98725.25
2024-01-20T05:34:21.521Z,98722.03
2024-01-20T05:39:23.482Z,98717.13
2024-01-20T05:44:28.257Z,98713.13
2024-01-20T05:49:30.202Z,98726.47
2024-01-20T05:54:32.319Z,98727.19
2024-01-20T05:59:34.227Z,98747.91
2024-01-20T06:04:36.157Z,98740.44
2024-01-20T06:09:38.050Z,98751.50
2024-01-20T06:14:41.102Z,98746.59
2024-01-20T06:19:43.024Z,98750.00
2024-01-20T06:24:44.919Z,98761.06
2024-01-20T06:29:46.996Z,98760.50
2024-01-20T06:34:48.956Z,98760.72
2024-01-20T06:39:50.831Z,98752.28
2024-01-20T06:44:57.229Z,98763.31
2024-01-20T06:49:59.701Z,98769.34
2024-01-20T06:55:01.565Z,98780.56
2024-01-20T07:00:05.122Z,98787.41
2024-01-20T07:05:07.337Z,98788.38
2024-01-20T07:10:10.349Z,98789.34
2024-01-20T07:15:12.601Z,98792.63
2024-01-20T07:20:14.642Z,98806.31
2024-01-20T07:25:17.411Z,98808.56
2024-01-20T07:30:19.425Z,98807.53
2024-01-20T07:35:21.300Z,98819.16
2024-01-20T07:40:23.254Z,98813.00
2024-01-20T07:45:28.242Z,98825.16
2024-01-20T07:50:30.527Z,98825.56
2024-01-20T07:55:32.488Z,98841.28
2024-01-20T08:00:34.450Z,98840.06
2024-01-20T08:05:36.374Z,98842.22
2024-01-20T08:10:38.248Z,98848.00
2024-01-20T08:15:40.160Z,98851.88
2024-01-20T08:20:42.104Z,98860.09
2024-01-20T08:25:43.949Z,98862.81
2024-01-20T08:30:45.916Z,98863.19
2024-01-20T08:35:47.913Z,98861.97
2024-01-20T08:40:49.962Z,98864.03
2024-01-20T08:45:52.339Z,98867.28
2024-01-20T08:50:54.204Z,98866.53
2024-01-20T08:55:56.218Z,98882.75
2024-01-20T09:00:58.235Z,98884.66
2024-01-20T09:06:00.389Z,98888.22
2024-01-20T09:11:02.328Z,98887.72
2024-01-20T09:16:04.485Z,98898.34
2024-01-20T09:21:11.779Z,98902.59
2024-01-20T09:26:13.616Z,98909.03
2024-01-20T09:31:15.579Z,98913.09
2024-01-20T09:36:17.442Z,98919.13
2024-01-20T09:41:19.359Z,98934.13
2024-01-20T09:46:21.522Z,98932.28
2024-01-20T09:51:29.522Z,98933.59
2024-01-20T09:56:32.132Z,98929.53
2024-01-20T10:01:34.514Z,98926.75
2024-01-20T10:06:36.513Z,98934.13
2024-01-20T10:11:38.452Z,98931.22
2024-01-20T10:16:43.158Z,98937.69
2024-01-20T10:21:45.142Z,98944.00
2024-01-20T10:26:47.037Z,98931.53
2024-01-20T10:31:49.086Z,98936.25
2024-01-20T10:36:55.206Z,98932.63
2024-01-20T10:41:59.407Z,98925.34
2024-01-20T10:47:06.125Z,98924.97
2024-01-20T10:52:08.612Z,98923.22
2024-01-20T10:57:11.769Z,98927.66
2024-01-20T11:02:14.675Z,98928.41
2024-01-20T11:07:23.787Z,98927.38
2024-01-20T11:12:27.295Z,98944.84
2024-01-20T11:17:30.277Z,98934.09
2024-01-20T11:22:39.907Z,98934.19
2024-01-20T11:27:49.658Z,98929.06
2024-01-20T11:32:51.633Z,98938.56
2024-01-20T11:37:58.862Z,98936.72
2024-01-20T11:43:13.872Z,98943.06
2024-01-20T11:48:18.638Z,98930.69
2024-01-20T11:53:23.725Z,98939.94
2024-01-20T11:58:25.994Z,98934.91
2024-01-20T12:03:28.544Z,98934.41
2024-01-20T12:08:31.086Z,98933.66
2024-01-20T12:13:35.881Z,98922.47
2024-01-20T12:18:38.073Z,98918.25
2024-01-20T12:23:41.405Z,98914.88
2024-01-20T12:28:46.396Z,98899.88
2024-01-20T12:33:48.516Z,98913.28
2024-01-20T12:38:50.436Z,98897.63
2024-01-20T12:43:52.298Z,98889.09
2024-01-20T12:48:54.245Z,98893.13
2024-01-20T12:53:56.216Z,98902.00
2024-01-20T12:58:58.144Z,98899.03
2024-01-20T13:04:00.165Z,98898.56
2024-01-20T13:09:02.063Z,98896.19
2024-01-20T13:14:04.481Z,98896.78
2024-01-20T13:19:07.508Z,98895.03
2024-01-20T13:24:09.629Z,98901.50
2024-01-20T13:29:13.131Z,98900.88
2024-01-20T13:34:15.083Z,98897.22
2024-01-20T13:39:17.082Z,98908.50
2024-01-20T13:44:19.055Z,98916.16
2024-01-20T13:49:21.203Z,98922.84
2024-01-20T13:54:23.282Z,98911.78
2024-01-20T13:59:27.508Z,98908.09
2024-01-20T14:04:29.395Z,98919.47
2024-01-20T14:09:32.020Z,98927.00
2024-01-20T14:14:33.886Z,98936.91
2024-01-20T14:19:35.982Z,98936.03
2024-01-20T14:24:38.164Z,98934.88
2024-01-20T14:29:40.241Z,98925.50
2024-01-20T14:34:42.185Z,98932.63
2024-01-20T14:39:44.119Z,98933.78
2024-01-20T14:44:46.008Z,98932.78
2024-01-20T14:49:47.960Z,98941.09
2024-01-20T14:54:49.911Z,98955.63
2024-01-20T14:59:53.126Z,98974.13
2024-01-20T15:04:54.979Z,98977.16
2024-01-20T15:09:56.853Z,98981.78
2024-01-20T15:14:58.759Z,98981.28
2024-01-20T15:20:00.656Z,98980.03
2024-01-20T15:25:02.867Z,98995.19
2024-01-20T15:30:06.008Z,98997.03
2024-01-20T15:35:09.049Z,98998.13
2024-01-20T15:40:11.548Z,99005.53
2024-01-20T15:45:13.591Z,99005.09
2024-01-20T15:50:15.518Z,99004.06
2024-01-20T15:55:17.705Z,99014.03
2024-01-20T16:00:19.746Z,99022.81
2024-01-20T16:05:21.699Z,99032.72
2024-01-20T16:10:23.353Z,99032.94
2024-01-20T16:15:25.560Z,99039.88
2024-01-20T16:20:28.498Z,99047.75
2024-01-20T16:25:30.368Z,99061.63
2024-01-20T16:30:32.544Z,99061.25
2024-01-20T16:35:34.238Z,99074.22
2024-01-20T16:40:35.857Z,99071.19
2024-01-20T16:45:37.498Z,99071.44
2024-01-20T16:50:39.206Z,99080.31
2024-01-20T16:55:40.905Z,99081.38
2024-01-20T17:00:42.642Z,99090.28
2024-01-20T17:05:44.399Z,99093.16
2024-01-20T17:10:46.846Z,99092.41
2024-01-20T17:15:48.528Z,99101.19
2024-01-20T17:20:50.156Z,99102.38
2024-01-20T17:25:51.881Z,99108.59
2024-01-20T17:30:53.817Z,99117.34
2024-01-20T17:35:55.860Z,99119.91
2024-01-20T17:40:57.486Z,99116.81
2024-01-20T17:45:59.112Z,99114.81
2024-01-20T17:51:01.000Z,99120.22
2024-01-20T17:56:03.899Z,99111.16
2024-01-20T18:01:06.371Z,99116.56
2024-01-20T18:06:09.032Z,99121.38
2024-01-20T18:11:11.129Z,99114.34
2024-01-20T18:16:12.784Z,99126.63
2024-01-20T18:21:15.913Z,99125.38
2024-01-20T18:26:17.568Z,99127.78
2024-01-20T18:31:19.270Z,99136.09
2024-01-20T18:36:23.734Z,99132.38
2024-01-20T18:41:25.428Z,99127.72
2024-01-20T18:46:27.114Z,99136.41
2024-01-20T18:51:28.783Z,99127.47
2024-01-20T18:56:32.741Z,99131.22
2024-01-20T19:01:40.304Z,99130.13
2024-01-20T19:06:42.321Z,99138.94
2024-01-20T19:11:45.247Z,99133.94
2024-01-20T19:16:47.015Z,99129.00
2024-01-20T19:21:49.198Z,99125.94
2024-01-20T19:26:50.957Z,99130.25
2024-01-20T19:31:53.105Z,99142.09
2024-01-20T19:36:54.841Z,99137.84
2024-01-20T19:41:56.559Z,99138.66
2024-01-20T19:46:58.325Z,99142.75
2024-01-20T19:52:03.379Z,99140.44
2024-01-20T19:57:05.310Z,99145.06
2024-01-20T20:02:07.221Z,99148.72
2024-01-20T20:07:10.127Z,99145.41
2024-01-20T20:12:12.095Z,99139.66
2024-01-20T20:17:13.774Z,99142.41
2024-01-20T20:22:15.662Z,99151.97
2024-01-20T20:27:19.953Z,99145.66
2024-01-20T20:32:23.117Z,99146.75
2024-01-20T20:37:24.924Z,99147.00
2024-01-20T20:42:26.847Z,99149.72
2024-01-20T20:47:28.768Z,99146.41
2024-01-20T20:52:31.052Z,99141.47
2024-01-20T20:57:32.822Z,99133.25
2024-01-20T21:02:34.704Z,99133.28
2024-01-20T21:07:36.339Z,99134.34
2024-01-20T21:12:38.003Z,99124.38
2024-01-20T21:17:41.117Z,99126.22
2024-01-20T21:22:42.948Z,99123.97
2024-01-20T21:27:45.277Z,99116.50
2024-01-20T21:32:47.186Z,99115.81
2024-01-20T21:37:48.895Z,99112.53
2024-01-20T21:42:50.537Z,99104.97
2024-01-20T21:47:52.210Z,99100.91
2024-01-20T21:52:53.987Z,99106.91
2024-01-20T21:57:57.942Z,99106.00
2024-01-20T22:03:01.089Z,99105.28
2024-01-20T22:08:02.886Z,99099.44
2024-01-20T22:13:04.865Z,99095.25
2024-01-20T22:18:08.040Z,99103.69
2024-01-20T22:23:10.001Z,99095.31
2024-01-20T22:28:11.897Z,99102.00
2024-01-20T22:33:13.882Z,99106.97
2024-01-20T22:38:15.773Z,99104.97
2024-01-20T22:43:17.604Z,99098.88
2024-01-20T22:48:19.929Z,99095.00
2024-01-20T22:53:21.872Z,99092.66
2024-01-20T22:58:23.738Z,99096.31
2024-01-20T23:03:25.691Z,99094.94
2024-01-20T23:08:27.605Z,99109.44
2024-01-20T23:13:29.603Z,99117.31
2024-01-20T23:18:31.466Z,99107.72
2024-01-20T23:23:33.395Z,99099.25
2024-01-20T23:28:35.210Z,99100.47
2024-01-20T23:33:37.180Z,99090.78
2024-01-20T23:38:39.226Z,99091.28
2024-01-20T23:43:41.432Z,99089.25
2024-01-20T23:48:43.298Z,99081.53
2024-01-20T23:53:45.230Z,99073.56
2024-01-20T23:58:47.191Z,99067.66
